createdAt,value
2023-03-16T00:04:09.550Z,18.80
2023-03-16T00:09:13.514Z,18.80
2023-03-16T00:14:16.411Z,17.70
2023-03-16T00:19:19.730Z,27.20
2023-03-16T00:24:25.293Z,21.90
2023-03-16T00:29:28.808Z,19.90
2023-03-16T00:34:34.991Z,16.30
2023-03-16T00:39:37.900Z,21.40
2023-03-16T00:44:44.323Z,14.40
2023-03-16T00:49:47.178Z,18.60
2023-03-16T00:54:53.051Z,17.10
2023-03-16T00:59:56.615Z,19.90
2023-03-16T01:04:59.679Z,15.90
2023-03-16T01:10:03.923Z,14.70
2023-03-16T01:15:07.725Z,12.40
2023-03-16T01:20:12.571Z,19.10
2023-03-16T01:25:15.594Z,20.30
2023-03-16T01:30:18.914Z,17.00
2023-03-16T01:35:22.100Z,18.40
2023-03-16T01:40:25.271Z,18.60
2023-03-16T01:45:56.637Z,12.10
2023-03-16T01:50:59.817Z,12.90
2023-03-16T01:56:08.660Z,13.00
2023-03-16T02:01:14.244Z,17.80
2023-03-16T02:06:19.524Z,13.90
2023-03-16T02:11:23.723Z,14.80
2023-03-16T02:16:26.933Z,17.20
2023-03-16T02:21:39.296Z,14.00
2023-03-16T02:27:00.277Z,16.40
2023-03-16T02:32:03.401Z,15.10
2023-03-16T02:37:07.523Z,14.00
2023-03-16T02:42:15.690Z,14.50
2023-03-16T02:47:44.882Z,13.10
2023-03-16T02:57:52.521Z,9.50
2023-03-16T03:02:55.440Z,15.80
2023-03-16T03:07:58.332Z,16.60
2023-03-16T03:13:01.343Z,18.00
2023-03-16T03:18:04.751Z,9.90
2023-03-16T03:23:07.982Z,14.40
2023-03-16T03:28:11.698Z,18.60
2023-03-16T03:33:14.595Z,14.40
2023-03-16T03:38:18.112Z,13.90
2023-03-16T03:43:22.062Z,10.90
2023-03-16T03:48:25.864Z,14.50
2023-03-16T03:53:28.768Z,18.50
2023-03-16T03:58:31.676Z,15.50
2023-03-16T04:03:34.880Z,14.80
2023-03-16T04:08:37.996Z,17.10
2023-03-16T04:13:41.404Z,13.80
2023-03-16T04:18:45.645Z,14.20
2023-03-16T04:23:50.056Z,16.20
2023-03-16T04:28:52.986Z,12.20
2023-03-16T04:33:55.892Z,16.60
2023-03-16T04:38:59.325Z,20.80
2023-03-16T04:44:02.313Z,16.80
2023-03-16T04:49:05.627Z,14.80
2023-03-16T04:54:08.636Z,14.90
2023-03-16T04:59:12.161Z,14.50
2023-03-16T05:04:19.105Z,11.60
2023-03-16T05:09:22.772Z,10.50
2023-03-16T05:14:25.683Z,15.60
2023-03-16T05:19:28.509Z,11.50
2023-03-16T05:24:31.387Z,13.20
2023-03-16T05:29:34.592Z,15.30
2023-03-16T05:34:37.804Z,12.80
2023-03-16T05:39:40.710Z,15.50
2023-03-16T05:44:45.056Z,12.80
2023-03-16T05:49:48.571Z,14.10
2023-03-16T05:54:51.574Z,13.00
2023-03-16T05:59:54.782Z,11.00
2023-03-16T06:04:59.643Z,12.40
2023-03-16T06:10:03.053Z,11.50
2023-03-16T06:15:08.002Z,12.40
2023-03-16T06:20:13.575Z,13.10
2023-03-16T06:25:17.220Z,14.50
2023-03-16T06:30:20.506Z,14.10
2023-03-16T06:35:23.715Z,13.60
2023-03-16T06:40:27.055Z,13.10
2023-03-16T06:45:30.141Z,14.90
2023-03-16T06:50:33.146Z,14.20
2023-03-16T06:55:36.052Z,15.10
2023-03-16T07:00:38.955Z,11.70
2023-03-16T07:05:41.855Z,12.90
2023-03-16T07:10:44.860Z,9.40
2023-03-16T07:15:52.364Z,12.10
2023-03-16T07:20:55.278Z,13.60
2023-03-16T07:25:58.287Z,13.30
2023-03-16T07:31:04.187Z,11.10
2023-03-16T07:36:10.790Z,11.70
2023-03-16T07:41:14.276Z,11.90
2023-03-16T07:46:17.837Z,10.40
2023-03-16T07:51:21.610Z,11.50
2023-03-16T07:56:24.924Z,14.20
2023-03-16T08:01:28.404Z,13.70
2023-03-16T08:06:31.452Z,12.50
2023-03-16T08:11:34.864Z,14.10
2023-03-16T08:16:37.879Z,14.30
2023-03-16T08:21:57.683Z,14.20
2023-03-16T08:27:03.985Z,16.50
2023-03-16T08:32:07.579Z,16.90
2023-03-16T08:37:11.810Z,15.90
2023-03-16T08:42:17.069Z,16.10
2023-03-16T08:47:20.583Z,19.70
2023-03-16T08:52:23.872Z,20.50
2023-03-16T08:57:27.419Z,19.50
2023-03-16T09:02:30.318Z,18.10
2023-03-16T09:07:35.790Z,21.40
2023-03-16T09:12:41.097Z,21.90
2023-03-16T09:17:45.361Z,20.30
2023-03-16T09:22:48.372Z,17.30
2023-03-16T09:27:51.388Z,19.60
2023-03-16T09:32:54.766Z,18.30
2023-03-16T09:38:06.864Z,15.10
2023-03-16T09:43:29.591Z,15.10
2023-03-16T09:48:36.102Z,13.40
2023-03-16T09:53:39.834Z,14.40
2023-03-16T09:58:43.423Z,14.70
2023-03-16T10:04:10.830Z,13.70
2023-03-16T10:09:26.399Z,11.00
2023-03-16T10:14:41.706Z,14.60
2023-03-16T10:19:58.193Z,16.40
2023-03-16T10:25:07.742Z,14.30
2023-03-16T10:30:36.339Z,11.00
2023-03-16T10:35:58.441Z,18.60
2023-03-16T10:41:01.402Z,12.50
2023-03-16T10:46:04.485Z,11.70
2023-03-16T10:51:12.681Z,9.00
2023-03-16T10:56:25.429Z,11.10
2023-03-16T11:01:29.600Z,11.80
2023-03-16T11:06:33.665Z,15.50
2023-03-16T11:11:37.070Z,14.50
2023-03-16T11:16:48.419Z,13.30
2023-03-16T11:22:13.250Z,12.70
2023-03-16T11:27:30.451Z,12.80
2023-03-16T11:32:37.597Z,16.10
2023-03-16T11:37:54.412Z,11.30
2023-03-16T11:43:06.743Z,15.10
2023-03-16T11:48:33.826Z,13.90
2023-03-16T11:53:59.003Z,13.10
2023-03-16T11:59:16.702Z,12.30
2023-03-16T12:04:27.695Z,10.80
2023-03-16T12:09:47.860Z,12.30
2023-03-16T12:15:08.326Z,11.50
2023-03-16T12:20:24.900Z,11.40
2023-03-16T12:25:33.142Z,10.30
2023-03-16T12:31:03.837Z,13.70
2023-03-16T12:36:25.116Z,14.30
2023-03-16T12:41:37.337Z,14.80
2023-03-16T12:46:59.335Z,10.20
2023-03-16T12:52:10.100Z,10.10
2023-03-16T12:57:17.558Z,12.80
2023-03-16T13:02:26.475Z,12.30
2023-03-16T13:07:32.010Z,11.00
2023-03-16T13:12:38.094Z,11.80
2023-03-16T13:17:41.266Z,12.70
2023-03-16T13:22:50.212Z,16.40
2023-03-16T13:27:56.632Z,13.30
2023-03-16T13:33:17.900Z,10.40
2023-03-16T13:38:25.894Z,11.40
2023-03-16T13:43:33.201Z,14.90
2023-03-16T13:48:38.678Z,12.30
2023-03-16T13:53:43.434Z,15.40
2023-03-16T13:58:49.272Z,19.40
2023-03-16T14:03:52.567Z,10.50
2023-03-16T14:09:06.053Z,7.80
2023-03-16T14:14:18.263Z,10.00
2023-03-16T14:19:32.412Z,9.70
2023-03-16T14:24:38.987Z,10.40
2023-03-16T14:29:43.674Z,11.40
2023-03-16T14:34:51.391Z,11.40
2023-03-16T14:40:20.817Z,10.10
2023-03-16T14:45:28.535Z,8.70
2023-03-16T14:50:32.513Z,11.30
2023-03-16T14:55:36.493Z,8.00
2023-03-16T15:00:52.344Z,10.00
2023-03-16T15:05:56.227Z,10.20
2023-03-16T15:11:02.679Z,9.90
2023-03-16T15:16:07.311Z,5.60
2023-03-16T15:21:17.335Z,6.40
2023-03-16T15:26:26.376Z,7.40
2023-03-16T15:31:29.328Z,6.90
2023-03-16T15:36:32.283Z,7.00
2023-03-16T15:41:46.695Z,5.60
2023-03-16T15:46:50.240Z,6.80
2023-03-16T15:51:53.203Z,6.70
2023-03-16T15:56:56.297Z,4.60
2023-03-16T16:01:59.404Z,5.60
2023-03-16T16:07:03.008Z,6.60
2023-03-16T16:12:06.752Z,13.80
2023-03-16T16:17:36.548Z,15.70
2023-03-16T16:22:47.419Z,17.80
2023-03-16T16:27:51.510Z,10.70
2023-03-16T16:32:56.895Z,16.30
2023-03-16T16:38:00.312Z,14.10
2023-03-16T16:43:06.339Z,14.80
2023-03-16T16:48:32.448Z,15.90
2023-03-16T16:53:36.042Z,9.10
2023-03-16T16:58:39.629Z,16.10
2023-03-16T17:03:42.634Z,40.30
2023-03-16T17:08:46.931Z,80.30
2023-03-16T17:13:52.821Z,46.00
2023-03-16T17:18:56.080Z,61.50
2023-03-16T17:24:00.525Z,44.90
2023-03-16T17:29:11.006Z,41.30
2023-03-16T17:34:29.289Z,41.70
2023-03-16T17:39:34.833Z,45.00
2023-03-16T17:44:41.325Z,41.90
2023-03-16T17:49:45.455Z,66.40
2023-03-16T17:54:49.856Z,87.80
2023-03-16T17:59:53.617Z,51.50
2023-03-16T18:04:56.342Z,49.60
2023-03-16T18:09:59.412Z,38.00
2023-03-16T18:15:03.244Z,51.90
2023-03-16T18:20:21.207Z,74.90
2023-03-16T18:25:32.211Z,52.40
2023-03-16T18:30:38.277Z,44.60
2023-03-16T18:35:43.492Z,32.40
2023-03-16T18:40:47.507Z,27.00
2023-03-16T18:45:51.100Z,21.80
2023-03-16T18:50:55.130Z,25.20
2023-03-16T18:55:58.223Z,32.40
2023-03-16T19:01:01.761Z,31.70
2023-03-16T19:06:06.284Z,25.40
2023-03-16T19:11:11.530Z,14.50
2023-03-16T19:16:17.878Z,21.20
2023-03-16T19:21:25.109Z,30.10
2023-03-16T19:26:28.708Z,26.30
2023-03-16T19:31:32.759Z,22.30
2023-03-16T19:36:35.534Z,19.30
2023-03-16T19:41:38.487Z,17.60
2023-03-16T19:46:42.043Z,16.70
2023-03-16T19:51:44.832Z,17.40
2023-03-16T19:56:48.124Z,19.10
2023-03-16T20:01:50.889Z,22.00
2023-03-16T20:06:54.238Z,31.20
2023-03-16T20:11:57.041Z,27.30
2023-03-16T20:17:00.412Z,23.40
2023-03-16T20:22:03.326Z,21.20
2023-03-16T20:27:11.826Z,26.10
2023-03-16T20:32:24.611Z,25.80
2023-03-16T20:37:30.959Z,25.10
2023-03-16T20:42:35.177Z,28.60
2023-03-16T20:47:37.961Z,28.80
2023-03-16T20:52:40.752Z,27.40
2023-03-16T20:57:44.696Z,25.80
2023-03-16T21:02:47.550Z,21.40
2023-03-16T21:07:52.945Z,18.90
2023-03-16T21:12:57.674Z,23.90
2023-03-16T21:18:07.409Z,24.40
2023-03-16T21:23:14.770Z,32.20
2023-03-16T21:28:19.945Z,27.10
2023-03-16T21:33:32.113Z,28.90
2023-03-16T21:38:34.941Z,24.70
2023-03-16T21:43:40.063Z,22.80
2023-03-16T21:48:43.426Z,32.10
2023-03-16T21:53:48.925Z,29.80
2023-03-16T21:58:53.717Z,26.60
2023-03-16T22:04:01.753Z,30.30
2023-03-16T22:09:04.787Z,29.30
2023-03-16T22:14:10.054Z,26.30
2023-03-16T22:19:17.896Z,39.90
2023-03-16T22:24:24.525Z,35.30
2023-03-16T22:29:30.155Z,35.90
2023-03-16T22:34:44.680Z,48.90
2023-03-16T22:39:48.329Z,32.90
2023-03-16T22:44:51.199Z,25.60
2023-03-16T22:49:54.106Z,31.00
2023-03-16T22:54:59.123Z,34.80
2023-03-16T23:00:11.280Z,50.80
2023-03-16T23:05:19.438Z,38.70
2023-03-16T23:10:25.701Z,27.80
2023-03-16T23:15:30.769Z,26.60
2023-03-16T23:20:33.764Z,33.40
2023-03-16T23:25:37.067Z,46.40
2023-03-16T23:30:40.080Z,50.00
2023-03-16T23:35:46.760Z,55.50
2023-03-16T23:40:49.925Z,35.80
2023-03-16T23:45:52.882Z,34.60
2023-03-16T23:50:56.398Z,35.60
2023-03-16T23:56:00.132Z,32.40
